Historyczne dane pomiarowe

Dodano dane terminowe – wersja testowa.

Dane z okresu 1951-2019

Wersja bazy: 1.34 [2019-03-16, lista zmian], aktualizacja planowana na 2019-04-15

Dane meteo z obszaru Polski uzyskane na podstawie danych udostępnionych przez Instytut Meteorologii i Gospodarki Wodnej – Państwowy Instytut Badawczy.

 

Wybierz Datę:    

       

TemperaturaWilgotnośćWiatrCiśnienieOpadyŚniegCzas trwania zjawisk
 Stacja t tx tn tng RH VA  wxwx mslp ppp RRR   cm mm wxwxwxwxwxwxwx
1956-11-09 -1.6 3.7 -7.5- 61.3- 2.3 2.7---- 0.0-- 8---------
1956-11-08 -2.1 2.5 -4.9- 87.0- 2.3 0.7---- 0.0-- 10---------
1956-11-07 0.8 4.3 -1.2-100.0- 8.0 0.7---- 11.4-- 4---------
1956-11-06 3.1 4.1 -0.3- 92.0- 7.3 5.0---- 29.0------------
1956-11-05 4.3 6.3 1.3- 94.5- 8.0 4.7---- 3.1------------
1956-11-04 0.8 1.9 -3.9- 80.8- 7.3 3.0---- 0.8------------
1956-11-03 -0.4 1.3 -2.3- 90.3- 8.0 1.0---- 0.3------------
1956-11-02 -0.5 0.9 -3.5- 96.5- 8.0 1.0---- 0.2------------
1956-11-01 -1.0 4.7 -8.9- 81.8- 0.0 0.3---- 0.0------------
1956-10-31 -5.4 2.6 -7.1- 79.8- 5.3 1.7---- 0.0------------
1956-10-30 3.0 6.6 0.6- 98.5- 8.0 2.0---- 0.0------------
1956-10-29 3.6 5.5 0.9-100.0- 8.0 2.7---- 7.8------------
1956-10-28 5.4 8.5 4.4-100.0- 8.0 1.0---- 64.2------------
1956-10-27 7.5 8.9 3.4-100.0- 8.0 1.0---- 5.5------------
1956-10-26 4.6 10.1 3.0-100.0- 8.0 1.3---- 23.7------------
1956-10-25 9.9 13.7 7.9- 92.0- 6.3 3.3---- 7.8------------
1956-10-24 12.1 17.1 6.6- 84.3- 3.3 2.7---- 0.0------------
1956-10-23 9.8 14.6 5.2- 91.0- 0.7 2.3---- 0.0------------
1956-10-22 10.5 19.1 5.8- 89.0- 0.0 1.3---- 0.0------------
1956-10-21 11.2 18.5 7.2- 91.0- 3.0 1.7---- 0.0------------
1956-10-20 10.9 14.6 7.3- 95.8- 8.0 1.3---- 0.0------------
1956-10-19 11.6 14.1 10.3- 97.8- 8.0 2.0---- 2.4------------
1956-10-18 11.2 12.5 6.5- 97.5- 8.0 2.7---- 4.6------------
1956-10-17 9.9 15.5 3.6- 79.0- 2.0 5.7---- 0.0------------
1956-10-16 6.2 13.6 -1.3- 78.5- 0.0 1.0---- 0.0------------
1956-10-15 4.6 12.1 1.1- 87.8- 0.7 0.7---- 0.0------------
1956-10-14 9.1 11.6 7.4- 95.3- 7.0 5.0---- 2.3------------
1956-10-13 9.8 11.6 6.0- 78.0- 7.3 6.0---- 0.0------------
1956-10-12 8.4 13.5 4.6- 84.8- 2.7 1.7---- 0.0------------
1956-10-11 5.6 13.1 -1.4- 84.5- 0.3 1.3---- 0.0------------
1956-10-10 2.8 8.6 -0.4- 86.3- 3.0 1.0---- 0.0------------
1956-10-09 7.0 9.1 0.7- 92.8- 7.7 1.3---- 1.6------------
1956-10-08 2.9 7.7 -1.4- 92.0- 2.7 1.3---- 0.0------------
1956-10-07 4.4 9.3 1.6- 88.5- 2.7 3.0---- 0.0------------
1956-10-06 4.2 7.8 2.5- 95.8- 8.0 2.0---- 4.5------------
1956-10-05 8.8 11.9 5.5- 86.3- 6.3 3.3---- 5.7------------
1956-10-04 10.5 14.5 8.3- 93.8- 6.0 2.7---- 2.8------------
1956-10-03 13.4 19.9 9.4- 85.0- 4.3 4.3---- 2.7------------
1956-10-02 19.1 23.2 11.4- 67.5- 3.7 9.3---- 0.0------------
1956-10-01 17.1 23.8 10.5- 81.0- 2.3 1.0---- 0.0------------
1956-09-30 13.4 19.3 11.1- 92.0- 3.3 0.7---- 0.0------------
1956-09-29 14.9 20.3 12.3- 89.8- 5.3 3.7---- 0.0------------
1956-09-28 14.2 16.6 10.7- 82.8- 3.7 9.3---- 0.0------------
1956-09-27 16.0 21.0 12.2- 80.0- 5.0 2.7---- 0.2------------
1956-09-26 17.0 21.5 12.9- 61.8- 2.7 1.0---- 0.0------------
1956-09-25 15.5 21.6 5.0- 71.3- 0.0 1.7---- 0.0------------
1956-09-24 8.7 15.7 4.4- 94.0- 0.0 7.0---- 0.0------------
1956-09-23 12.6 18.7 5.2- 82.5- 0.0 6.0---- 0.0------------
1956-09-22 12.8 22.6 7.5- 83.3- 0.0 1.0---- 0.0------------
1956-09-21 11.5 19.4 4.6- 90.3- 0.3 1.7---- 0.0------------
1956-09-20 10.4 17.3 5.0- 77.3- 2.0 4.3---- 0.0------------
1956-09-19 7.7 15.5 2.1- 87.5- 0.0 1.0---- 0.0------------
1956-09-18 6.8 12.7 2.1- 90.8- 5.0 1.0---- 0.0------------
1956-09-17 8.6 11.6 7.4- 96.8- 6.7 4.3---- 8.9------------
1956-09-16 11.4 17.1 3.7- 85.3- 4.7 3.0---- 0.0------------
1956-09-15 10.1 15.9 4.6- 94.3- 3.7 1.3---- 0.0------------
1956-09-14 9.0 14.6 6.0- 91.5- 2.7 2.0---- 0.0------------
1956-09-13 7.8 12.3 6.5- 95.8- 7.3 4.7---- 5.8------------
1956-09-12 9.6 14.7 6.5- 94.3- 6.3 4.7---- 7.4------------
1956-09-11 15.0 19.1 13.4- 89.3- 6.0 2.3---- 4.1------------
174.9 ms

 

Źródłem pochodzenia danych jest Instytut Meteorologii i Gospodarki Wodnej – Państwowy Instytut Badawczy. Dane Instytutu Meteorologii i Gospodarki Wodnej – Państwowego Instytutu Badawczego zostały przetworzone.

Dane źródłowe można odnaleźć na stronie https://dane.imgw.pl